sensor_id;sensor_type;location;lat;lon;timestamp;P1;durP1;ratioP1;P2;durP2;ratioP2
23872;SDS011;42884;50.718;4.630;2023-10-08T00:02:19;5.45;;;3.08;;
23872;SDS011;42884;50.718;4.630;2023-10-08T00:04:47;6.93;;;3.20;;
23872;SDS011;42884;50.718;4.630;2023-10-08T00:07:16;6.10;;;3.30;;
23872;SDS011;42884;50.718;4.630;2023-10-08T00:09:47;4.53;;;2.47;;
23872;SDS011;42884;50.718;4.630;2023-10-08T00:12:13;5.93;;;2.90;;
23872;SDS011;42884;50.718;4.630;2023-10-08T00:14:41;6.55;;;3.30;;
23872;SDS011;42884;50.718;4.630;2023-10-08T00:17:12;6.88;;;3.03;;
23872;SDS011;42884;50.718;4.630;2023-10-08T00:19:39;8.50;;;3.53;;
23872;SDS011;42884;50.718;4.630;2023-10-08T00:22:07;7.28;;;3.40;;
23872;SDS011;42884;50.718;4.630;2023-10-08T00:24:34;5.65;;;2.90;;
23872;SDS011;42884;50.718;4.630;2023-10-08T00:27:00;6.85;;;3.10;;
23872;SDS011;42884;50.718;4.630;2023-10-08T00:29:27;8.38;;;2.95;;
23872;SDS011;42884;50.718;4.630;2023-10-08T00:31:56;7.18;;;3.28;;
23872;SDS011;42884;50.718;4.630;2023-10-08T00:34:23;7.10;;;3.22;;
23872;SDS011;42884;50.718;4.630;2023-10-08T00:36:50;5.75;;;3.38;;
23872;SDS011;42884;50.718;4.630;2023-10-08T00:39:16;6.50;;;2.80;;
23872;SDS011;42884;50.718;4.630;2023-10-08T00:41:49;8.75;;;3.35;;
23872;SDS011;42884;50.718;4.630;2023-10-08T00:44:19;5.65;;;3.38;;
23872;SDS011;42884;50.718;4.630;2023-10-08T00:46:48;7.78;;;3.60;;
23872;SDS011;42884;50.718;4.630;2023-10-08T00:49:24;6.82;;;3.53;;
23872;SDS011;42884;50.718;4.630;2023-10-08T00:52:08;7.78;;;3.22;;
23872;SDS011;42884;50.718;4.630;2023-10-08T00:54:38;8.98;;;3.22;;
23872;SDS011;42884;50.718;4.630;2023-10-08T00:57:21;6.70;;;3.20;;
23872;SDS011;42884;50.718;4.630;2023-10-08T00:59:50;5.18;;;3.00;;
23872;SDS011;42884;50.718;4.630;2023-10-08T01:02:27;4.57;;;3.00;;
23872;SDS011;42884;50.718;4.630;2023-10-08T01:05:15;4.90;;;2.95;;
23872;SDS011;42884;50.718;4.630;2023-10-08T01:07:50;6.40;;;3.25;;
23872;SDS011;42884;50.718;4.630;2023-10-08T01:10:17;5.75;;;3.25;;
23872;SDS011;42884;50.718;4.630;2023-10-08T01:12:46;5.35;;;2.72;;
23872;SDS011;42884;50.718;4.630;2023-10-08T01:15:37;6.32;;;3.33;;
23872;SDS011;42884;50.718;4.630;2023-10-08T01:18:03;10.48;;;3.78;;
23872;SDS011;42884;50.718;4.630;2023-10-08T01:20:31;6.22;;;2.70;;
23872;SDS011;42884;50.718;4.630;2023-10-08T01:25:30;6.78;;;3.28;;
23872;SDS011;42884;50.718;4.630;2023-10-08T01:27:56;8.02;;;2.92;;
23872;SDS011;42884;50.718;4.630;2023-10-08T01:30:26;8.35;;;3.50;;
23872;SDS011;42884;50.718;4.630;2023-10-08T01:32:52;7.38;;;3.63;;
23872;SDS011;42884;50.718;4.630;2023-10-08T01:35:18;6.03;;;3.35;;
23872;SDS011;42884;50.718;4.630;2023-10-08T01:37:51;7.03;;;3.38;;
23872;SDS011;42884;50.718;4.630;2023-10-08T01:40:20;6.00;;;3.53;;
23872;SDS011;42884;50.718;4.630;2023-10-08T01:42:46;5.47;;;3.17;;
23872;SDS011;42884;50.718;4.630;2023-10-08T01:45:16;7.47;;;3.63;;
23872;SDS011;42884;50.718;4.630;2023-10-08T01:47:43;7.75;;;3.45;;
23872;SDS011;42884;50.718;4.630;2023-10-08T01:50:09;4.57;;;3.20;;
23872;SDS011;42884;50.718;4.630;2023-10-08T01:52:55;6.40;;;2.83;;
23872;SDS011;42884;50.718;4.630;2023-10-08T01:55:21;7.70;;;3.47;;
23872;SDS011;42884;50.718;4.630;2023-10-08T01:57:50;7.00;;;3.10;;
23872;SDS011;42884;50.718;4.630;2023-10-08T02:00:19;5.97;;;3.20;;
23872;SDS011;42884;50.718;4.630;2023-10-08T02:05:18;7.18;;;3.25;;
23872;SDS011;42884;50.718;4.630;2023-10-08T02:07:46;7.03;;;3.83;;
23872;SDS011;42884;50.718;4.630;2023-10-08T02:10:12;6.13;;;3.42;;
23872;SDS011;42884;50.718;4.630;2023-10-08T02:12:39;6.90;;;3.55;;
23872;SDS011;42884;50.718;4.630;2023-10-08T02:15:06;3.75;;;2.92;;
23872;SDS011;42884;50.718;4.630;2023-10-08T02:17:33;6.85;;;3.53;;
23872;SDS011;42884;50.718;4.630;2023-10-08T02:19:59;5.63;;;3.38;;
23872;SDS011;42884;50.718;4.630;2023-10-08T02:22:29;8.45;;;3.30;;
23872;SDS011;42884;50.718;4.630;2023-10-08T02:24:55;6.32;;;3.40;;
23872;SDS011;42884;50.718;4.630;2023-10-08T02:27:26;10.52;;;3.60;;
23872;SDS011;42884;50.718;4.630;2023-10-08T02:29:53;5.28;;;3.58;;
23872;SDS011;42884;50.718;4.630;2023-10-08T02:32:19;5.75;;;3.33;;
23872;SDS011;42884;50.718;4.630;2023-10-08T02:34:47;5.40;;;3.63;;
23872;SDS011;42884;50.718;4.630;2023-10-08T02:37:15;7.68;;;3.55;;
23872;SDS011;42884;50.718;4.630;2023-10-08T02:39:41;6.65;;;3.63;;
23872;SDS011;42884;50.718;4.630;2023-10-08T02:42:08;7.70;;;3.53;;
23872;SDS011;42884;50.718;4.630;2023-10-08T02:44:36;9.73;;;3.28;;
23872;SDS011;42884;50.718;4.630;2023-10-08T02:47:08;8.07;;;3.20;;
23872;SDS011;42884;50.718;4.630;2023-10-08T02:49:37;8.77;;;3.10;;
23872;SDS011;42884;50.718;4.630;2023-10-08T02:52:06;7.30;;;3.67;;
23872;SDS011;42884;50.718;4.630;2023-10-08T02:54:34;6.18;;;2.95;;
23872;SDS011;42884;50.718;4.630;2023-10-08T02:57:02;12.77;;;3.80;;
23872;SDS011;42884;50.718;4.630;2023-10-08T02:59:30;6.68;;;4.05;;
23872;SDS011;42884;50.718;4.630;2023-10-08T03:02:09;5.63;;;3.63;;
23872;SDS011;42884;50.718;4.630;2023-10-08T03:04:44;5.55;;;3.20;;
23872;SDS011;42884;50.718;4.630;2023-10-08T03:07:11;9.10;;;3.55;;
23872;SDS011;42884;50.718;4.630;2023-10-08T03:09:57;6.28;;;3.72;;
23872;SDS011;42884;50.718;4.630;2023-10-08T03:12:41;5.47;;;3.08;;
23872;SDS011;42884;50.718;4.630;2023-10-08T03:17:53;6.53;;;3.08;;
23872;SDS011;42884;50.718;4.630;2023-10-08T03:20:19;7.60;;;3.83;;
23872;SDS011;42884;50.718;4.630;2023-10-08T03:23:06;7.88;;;3.50;;
23872;SDS011;42884;50.718;4.630;2023-10-08T03:25:41;7.03;;;3.15;;
23872;SDS011;42884;50.718;4.630;2023-10-08T03:28:07;7.00;;;3.40;;
23872;SDS011;42884;50.718;4.630;2023-10-08T03:30:34;7.07;;;4.00;;
23872;SDS011;42884;50.718;4.630;2023-10-08T03:33:16;6.82;;;3.85;;
23872;SDS011;42884;50.718;4.630;2023-10-08T03:35:51;6.75;;;3.45;;
23872;SDS011;42884;50.718;4.630;2023-10-08T03:38:20;6.20;;;3.63;;
23872;SDS011;42884;50.718;4.630;2023-10-08T03:40:53;6.90;;;3.75;;
23872;SDS011;42884;50.718;4.630;2023-10-08T03:43:25;6.30;;;3.95;;
23872;SDS011;42884;50.718;4.630;2023-10-08T03:46:00;9.27;;;4.13;;
23872;SDS011;42884;50.718;4.630;2023-10-08T03:48:33;6.22;;;3.38;;
23872;SDS011;42884;50.718;4.630;2023-10-08T03:51:04;5.13;;;3.20;;
23872;SDS011;42884;50.718;4.630;2023-10-08T03:53:36;9.25;;;3.72;;
23872;SDS011;42884;50.718;4.630;2023-10-08T03:56:07;6.53;;;3.80;;
23872;SDS011;42884;50.718;4.630;2023-10-08T03:58:33;9.57;;;3.80;;
23872;SDS011;42884;50.718;4.630;2023-10-08T04:01:06;7.20;;;3.75;;
23872;SDS011;42884;50.718;4.630;2023-10-08T04:03:36;6.65;;;3.60;;
23872;SDS011;42884;50.718;4.630;2023-10-08T04:06:20;6.38;;;4.25;;
23872;SDS011;42884;50.718;4.630;2023-10-08T04:08:59;6.43;;;3.67;;
23872;SDS011;42884;50.718;4.630;2023-10-08T04:11:35;4.93;;;3.63;;
23872;SDS011;42884;50.718;4.630;2023-10-08T04:14:17;5.13;;;3.22;;
23872;SDS011;42884;50.718;4.630;2023-10-08T04:16:44;7.63;;;3.47;;
23872;SDS011;42884;50.718;4.630;2023-10-08T04:21:36;4.68;;;3.30;;
23872;SDS011;42884;50.718;4.630;2023-10-08T04:24:02;5.80;;;3.47;;
23872;SDS011;42884;50.718;4.630;2023-10-08T04:26:29;10.23;;;4.18;;
23872;SDS011;42884;50.718;4.630;2023-10-08T04:28:57;6.65;;;3.65;;
23872;SDS011;42884;50.718;4.630;2023-10-08T04:31:26;8.05;;;3.67;;
23872;SDS011;42884;50.718;4.630;2023-10-08T04:33:53;7.03;;;4.22;;
23872;SDS011;42884;50.718;4.630;2023-10-08T04:36:25;8.30;;;3.83;;
23872;SDS011;42884;50.718;4.630;2023-10-08T04:38:51;7.53;;;3.83;;
23872;SDS011;42884;50.718;4.630;2023-10-08T04:41:20;5.72;;;3.38;;
23872;SDS011;42884;50.718;4.630;2023-10-08T04:43:52;8.05;;;3.65;;
23872;SDS011;42884;50.718;4.630;2023-10-08T04:46:20;9.25;;;3.58;;
23872;SDS011;42884;50.718;4.630;2023-10-08T04:49:07;4.53;;;3.33;;
23872;SDS011;42884;50.718;4.630;2023-10-08T04:51:42;7.47;;;4.00;;
23872;SDS011;42884;50.718;4.630;2023-10-08T04:56:41;7.38;;;4.00;;
23872;SDS011;42884;50.718;4.630;2023-10-08T05:01:36;10.32;;;3.97;;
23872;SDS011;42884;50.718;4.630;2023-10-08T05:04:06;7.95;;;3.83;;
23872;SDS011;42884;50.718;4.630;2023-10-08T05:06:46;7.63;;;3.85;;
23872;SDS011;42884;50.718;4.630;2023-10-08T05:09:12;7.13;;;4.25;;
23872;SDS011;42884;50.718;4.630;2023-10-08T05:11:44;5.68;;;3.95;;
23872;SDS011;42884;50.718;4.630;2023-10-08T05:14:22;6.30;;;3.70;;
23872;SDS011;42884;50.718;4.630;2023-10-08T05:17:07;6.63;;;3.70;;
23872;SDS011;42884;50.718;4.630;2023-10-08T05:19:47;7.40;;;3.67;;
23872;SDS011;42884;50.718;4.630;2023-10-08T05:22:14;6.00;;;3.78;;
23872;SDS011;42884;50.718;4.630;2023-10-08T05:24:47;7.38;;;4.22;;
23872;SDS011;42884;50.718;4.630;2023-10-08T05:27:32;7.13;;;3.97;;
23872;SDS011;42884;50.718;4.630;2023-10-08T05:30:25;8.00;;;4.30;;
23872;SDS011;42884;50.718;4.630;2023-10-08T05:33:19;10.23;;;5.03;;
23872;SDS011;42884;50.718;4.630;2023-10-08T05:35:53;7.32;;;4.50;;
23872;SDS011;42884;50.718;4.630;2023-10-08T05:38:22;8.77;;;4.30;;
23872;SDS011;42884;50.718;4.630;2023-10-08T05:40:49;9.05;;;4.38;;
23872;SDS011;42884;50.718;4.630;2023-10-08T05:43:28;6.47;;;3.97;;
23872;SDS011;42884;50.718;4.630;2023-10-08T05:46:03;9.60;;;4.45;;
23872;SDS011;42884;50.718;4.630;2023-10-08T05:51:34;8.07;;;4.60;;
23872;SDS011;42884;50.718;4.630;2023-10-08T05:54:16;8.65;;;4.03;;
23872;SDS011;42884;50.718;4.630;2023-10-08T05:56:55;5.97;;;3.85;;
23872;SDS011;42884;50.718;4.630;2023-10-08T05:59:49;6.20;;;4.22;;
23872;SDS011;42884;50.718;4.630;2023-10-08T06:02:21;9.73;;;4.20;;
23872;SDS011;42884;50.718;4.630;2023-10-08T06:05:03;6.20;;;3.97;;
23872;SDS011;42884;50.718;4.630;2023-10-08T06:07:49;5.07;;;3.40;;
23872;SDS011;42884;50.718;4.630;2023-10-08T06:12:52;8.80;;;5.15;;
23872;SDS011;42884;50.718;4.630;2023-10-08T06:15:26;9.48;;;4.65;;
23872;SDS011;42884;50.718;4.630;2023-10-08T06:18:09;6.90;;;4.60;;
23872;SDS011;42884;50.718;4.630;2023-10-08T06:20:36;6.93;;;4.60;;
23872;SDS011;42884;50.718;4.630;2023-10-08T06:23:04;8.77;;;4.38;;
23872;SDS011;42884;50.718;4.630;2023-10-08T06:25:32;8.07;;;4.32;;
23872;SDS011;42884;50.718;4.630;2023-10-08T06:28:09;7.00;;;4.38;;
23872;SDS011;42884;50.718;4.630;2023-10-08T06:30:37;8.55;;;5.00;;
23872;SDS011;42884;50.718;4.630;2023-10-08T06:33:09;8.57;;;4.40;;
23872;SDS011;42884;50.718;4.630;2023-10-08T06:35:35;7.15;;;4.55;;
23872;SDS011;42884;50.718;4.630;2023-10-08T06:38:01;10.02;;;5.35;;
23872;SDS011;42884;50.718;4.630;2023-10-08T06:40:40;9.95;;;5.05;;
23872;SDS011;42884;50.718;4.630;2023-10-08T06:43:06;9.50;;;4.72;;
23872;SDS011;42884;50.718;4.630;2023-10-08T06:45:42;8.65;;;4.95;;
23872;SDS011;42884;50.718;4.630;2023-10-08T06:48:10;7.70;;;4.70;;
23872;SDS011;42884;50.718;4.630;2023-10-08T06:50:43;7.32;;;4.63;;
23872;SDS011;42884;50.718;4.630;2023-10-08T06:53:10;9.80;;;5.43;;
23872;SDS011;42884;50.718;4.630;2023-10-08T06:55:39;8.63;;;4.30;;
23872;SDS011;42884;50.718;4.630;2023-10-08T06:58:06;10.10;;;5.28;;
23872;SDS011;42884;50.718;4.630;2023-10-08T07:00:37;9.18;;;5.93;;
23872;SDS011;42884;50.718;4.630;2023-10-08T07:03:05;9.95;;;5.25;;
23872;SDS011;42884;50.718;4.630;2023-10-08T07:05:49;8.70;;;4.88;;
23872;SDS011;42884;50.718;4.630;2023-10-08T07:10:57;6.60;;;4.38;;
23872;SDS011;42884;50.718;4.630;2023-10-08T07:13:26;8.88;;;5.22;;
23872;SDS011;42884;50.718;4.630;2023-10-08T07:15:54;8.85;;;5.30;;
23872;SDS011;42884;50.718;4.630;2023-10-08T07:18:21;8.05;;;4.70;;
23872;SDS011;42884;50.718;4.630;2023-10-08T07:20:53;9.43;;;5.15;;
23872;SDS011;42884;50.718;4.630;2023-10-08T07:23:21;8.27;;;5.45;;
23872;SDS011;42884;50.718;4.630;2023-10-08T07:25:57;8.73;;;5.00;;
23872;SDS011;42884;50.718;4.630;2023-10-08T07:28:40;8.98;;;5.05;;
23872;SDS011;42884;50.718;4.630;2023-10-08T07:31:16;10.68;;;5.65;;
23872;SDS011;42884;50.718;4.630;2023-10-08T07:33:47;12.70;;;6.03;;
23872;SDS011;42884;50.718;4.630;2023-10-08T07:36:24;10.80;;;5.07;;
23872;SDS011;42884;50.718;4.630;2023-10-08T07:38:55;12.73;;;6.95;;
23872;SDS011;42884;50.718;4.630;2023-10-08T07:41:21;11.25;;;7.53;;
23872;SDS011;42884;50.718;4.630;2023-10-08T07:43:47;19.23;;;7.20;;
23872;SDS011;42884;50.718;4.630;2023-10-08T07:46:23;10.38;;;5.70;;
23872;SDS011;42884;50.718;4.630;2023-10-08T07:48:53;8.20;;;4.82;;
23872;SDS011;42884;50.718;4.630;2023-10-08T07:51:19;10.82;;;5.18;;
23872;SDS011;42884;50.718;4.630;2023-10-08T07:53:49;8.85;;;4.90;;
23872;SDS011;42884;50.718;4.630;2023-10-08T07:56:19;8.43;;;5.50;;
23872;SDS011;42884;50.718;4.630;2023-10-08T07:58:45;9.82;;;5.50;;
23872;SDS011;42884;50.718;4.630;2023-10-08T08:01:13;9.60;;;5.80;;
23872;SDS011;42884;50.718;4.630;2023-10-08T08:03:39;8.23;;;5.20;;
23872;SDS011;42884;50.718;4.630;2023-10-08T08:06:11;12.15;;;5.28;;
23872;SDS011;42884;50.718;4.630;2023-10-08T08:08:39;7.53;;;4.38;;
23872;SDS011;42884;50.718;4.630;2023-10-08T08:11:05;10.80;;;4.18;;
23872;SDS011;42884;50.718;4.630;2023-10-08T08:13:40;8.23;;;4.72;;
23872;SDS011;42884;50.718;4.630;2023-10-08T08:16:12;9.43;;;5.05;;
23872;SDS011;42884;50.718;4.630;2023-10-08T08:18:45;6.45;;;4.15;;
23872;SDS011;42884;50.718;4.630;2023-10-08T08:21:14;8.60;;;4.80;;
23872;SDS011;42884;50.718;4.630;2023-10-08T08:23:44;8.90;;;4.70;;
23872;SDS011;42884;50.718;4.630;2023-10-08T08:26:17;7.28;;;4.43;;
23872;SDS011;42884;50.718;4.630;2023-10-08T08:28:57;9.55;;;5.28;;
23872;SDS011;42884;50.718;4.630;2023-10-08T08:31:27;8.07;;;4.60;;
23872;SDS011;42884;50.718;4.630;2023-10-08T08:33:56;8.50;;;4.25;;
23872;SDS011;42884;50.718;4.630;2023-10-08T08:36:35;7.18;;;4.55;;
23872;SDS011;42884;50.718;4.630;2023-10-08T08:39:04;7.97;;;4.68;;
23872;SDS011;42884;50.718;4.630;2023-10-08T08:41:36;8.18;;;4.35;;
23872;SDS011;42884;50.718;4.630;2023-10-08T08:44:05;11.07;;;5.13;;
23872;SDS011;42884;50.718;4.630;2023-10-08T08:46:35;10.25;;;4.75;;
23872;SDS011;42884;50.718;4.630;2023-10-08T08:49:03;9.52;;;4.15;;
23872;SDS011;42884;50.718;4.630;2023-10-08T08:51:32;8.75;;;4.65;;
23872;SDS011;42884;50.718;4.630;2023-10-08T08:54:00;8.55;;;4.20;;
23872;SDS011;42884;50.718;4.630;2023-10-08T08:56:32;7.53;;;4.03;;
23872;SDS011;42884;50.718;4.630;2023-10-08T08:59:06;9.07;;;4.88;;
23872;SDS011;42884;50.718;4.630;2023-10-08T09:01:41;8.23;;;4.97;;
23872;SDS011;42884;50.718;4.630;2023-10-08T09:04:07;12.27;;;4.80;;
23872;SDS011;42884;50.718;4.630;2023-10-08T09:06:36;14.25;;;5.15;;
23872;SDS011;42884;50.718;4.630;2023-10-08T09:09:03;7.78;;;4.97;;
23872;SDS011;42884;50.718;4.630;2023-10-08T09:11:50;11.63;;;4.90;;
23872;SDS011;42884;50.718;4.630;2023-10-08T09:14:19;9.43;;;4.68;;
23872;SDS011;42884;50.718;4.630;2023-10-08T09:16:46;9.32;;;4.13;;
23872;SDS011;42884;50.718;4.630;2023-10-08T09:21:43;8.48;;;4.20;;
23872;SDS011;42884;50.718;4.630;2023-10-08T09:24:24;11.23;;;4.25;;
23872;SDS011;42884;50.718;4.630;2023-10-08T09:29:23;7.70;;;4.20;;
23872;SDS011;42884;50.718;4.630;2023-10-08T09:31:53;9.57;;;4.80;;
23872;SDS011;42884;50.718;4.630;2023-10-08T09:34:21;8.50;;;4.90;;
23872;SDS011;42884;50.718;4.630;2023-10-08T09:36:50;10.93;;;4.32;;
23872;SDS011;42884;50.718;4.630;2023-10-08T09:39:18;7.75;;;4.30;;
23872;SDS011;42884;50.718;4.630;2023-10-08T09:41:49;13.93;;;5.00;;
23872;SDS011;42884;50.718;4.630;2023-10-08T09:45:00;10.13;;;4.47;;
23872;SDS011;42884;50.718;4.630;2023-10-08T09:47:31;9.60;;;5.13;;
23872;SDS011;42884;50.718;4.630;2023-10-08T09:50:02;6.65;;;4.20;;
23872;SDS011;42884;50.718;4.630;2023-10-08T09:55:13;12.07;;;5.03;;
23872;SDS011;42884;50.718;4.630;2023-10-08T09:57:42;11.82;;;4.80;;
23872;SDS011;42884;50.718;4.630;2023-10-08T10:00:08;10.07;;;4.85;;
23872;SDS011;42884;50.718;4.630;2023-10-08T10:02:43;9.77;;;4.25;;
23872;SDS011;42884;50.718;4.630;2023-10-08T10:05:13;13.55;;;5.45;;
23872;SDS011;42884;50.718;4.630;2023-10-08T10:07:49;9.65;;;4.47;;
23872;SDS011;42884;50.718;4.630;2023-10-08T10:10:30;10.05;;;4.95;;
23872;SDS011;42884;50.718;4.630;2023-10-08T10:13:02;8.57;;;5.03;;
23872;SDS011;42884;50.718;4.630;2023-10-08T10:15:31;7.72;;;5.35;;
23872;SDS011;42884;50.718;4.630;2023-10-08T10:20:43;13.73;;;5.47;;
23872;SDS011;42884;50.718;4.630;2023-10-08T10:25:59;15.57;;;6.00;;
23872;SDS011;42884;50.718;4.630;2023-10-08T10:28:26;12.38;;;5.15;;
23872;SDS011;42884;50.718;4.630;2023-10-08T10:30:53;11.52;;;5.60;;
23872;SDS011;42884;50.718;4.630;2023-10-08T10:33:20;10.70;;;5.03;;
23872;SDS011;42884;50.718;4.630;2023-10-08T10:35:53;18.20;;;5.15;;
23872;SDS011;42884;50.718;4.630;2023-10-08T10:38:19;9.88;;;4.95;;
23872;SDS011;42884;50.718;4.630;2023-10-08T10:40:50;8.95;;;5.88;;
23872;SDS011;42884;50.718;4.630;2023-10-08T10:43:27;10.63;;;5.13;;
23872;SDS011;42884;50.718;4.630;2023-10-08T10:48:30;11.43;;;5.32;;
23872;SDS011;42884;50.718;4.630;2023-10-08T10:50:59;12.63;;;4.20;;
23872;SDS011;42884;50.718;4.630;2023-10-08T10:53:34;9.05;;;4.68;;
23872;SDS011;42884;50.718;4.630;2023-10-08T10:56:13;8.75;;;4.45;;
23872;SDS011;42884;50.718;4.630;2023-10-08T10:58:46;10.35;;;4.82;;
23872;SDS011;42884;50.718;4.630;2023-10-08T11:01:18;12.63;;;5.20;;
23872;SDS011;42884;50.718;4.630;2023-10-08T11:03:55;10.98;;;5.43;;
23872;SDS011;42884;50.718;4.630;2023-10-08T11:06:24;9.20;;;5.07;;
23872;SDS011;42884;50.718;4.630;2023-10-08T11:08:51;8.90;;;5.00;;
23872;SDS011;42884;50.718;4.630;2023-10-08T11:11:18;14.75;;;5.95;;
23872;SDS011;42884;50.718;4.630;2023-10-08T11:13:45;11.25;;;5.88;;
23872;SDS011;42884;50.718;4.630;2023-10-08T11:16:22;10.48;;;5.15;;
23872;SDS011;42884;50.718;4.630;2023-10-08T11:18:48;13.05;;;5.90;;
23872;SDS011;42884;50.718;4.630;2023-10-08T11:21:16;11.93;;;4.80;;
23872;SDS011;42884;50.718;4.630;2023-10-08T11:23:47;10.63;;;5.00;;
23872;SDS011;42884;50.718;4.630;2023-10-08T11:26:36;13.25;;;5.03;;
23872;SDS011;42884;50.718;4.630;2023-10-08T11:29:19;10.93;;;5.13;;
23872;SDS011;42884;50.718;4.630;2023-10-08T11:31:51;12.40;;;5.65;;
23872;SDS011;42884;50.718;4.630;2023-10-08T11:34:17;8.00;;;4.47;;
23872;SDS011;42884;50.718;4.630;2023-10-08T11:36:52;11.93;;;5.70;;
23872;SDS011;42884;50.718;4.630;2023-10-08T11:39:18;7.45;;;4.47;;
23872;SDS011;42884;50.718;4.630;2023-10-08T11:42:02;7.88;;;4.75;;
23872;SDS011;42884;50.718;4.630;2023-10-08T11:44:32;12.60;;;5.10;;
23872;SDS011;42884;50.718;4.630;2023-10-08T11:47:01;12.55;;;6.20;;
23872;SDS011;42884;50.718;4.630;2023-10-08T11:49:40;10.20;;;4.90;;
23872;SDS011;42884;50.718;4.630;2023-10-08T11:52:15;8.10;;;5.25;;
23872;SDS011;42884;50.718;4.630;2023-10-08T11:54:44;10.23;;;5.18;;
23872;SDS011;42884;50.718;4.630;2023-10-08T11:57:11;9.88;;;4.85;;
23872;SDS011;42884;50.718;4.630;2023-10-08T12:02:05;11.80;;;5.75;;
23872;SDS011;42884;50.718;4.630;2023-10-08T12:04:31;10.60;;;5.22;;
23872;SDS011;42884;50.718;4.630;2023-10-08T12:09:27;11.48;;;5.13;;
23872;SDS011;42884;50.718;4.630;2023-10-08T12:14:18;10.82;;;5.28;;
23872;SDS011;42884;50.718;4.630;2023-10-08T12:19:10;9.75;;;5.40;;
23872;SDS011;42884;50.718;4.630;2023-10-08T12:21:42;9.05;;;5.30;;
23872;SDS011;42884;50.718;4.630;2023-10-08T12:24:13;7.68;;;4.68;;
23872;SDS011;42884;50.718;4.630;2023-10-08T12:26:39;12.65;;;5.68;;
23872;SDS011;42884;50.718;4.630;2023-10-08T12:29:11;11.35;;;4.95;;
23872;SDS011;42884;50.718;4.630;2023-10-08T12:31:39;11.07;;;5.35;;
23872;SDS011;42884;50.718;4.630;2023-10-08T12:34:05;10.43;;;5.00;;
23872;SDS011;42884;50.718;4.630;2023-10-08T12:36:31;12.65;;;5.07;;
23872;SDS011;42884;50.718;4.630;2023-10-08T12:39:01;13.13;;;5.65;;
23872;SDS011;42884;50.718;4.630;2023-10-08T12:41:53;11.20;;;4.75;;
23872;SDS011;42884;50.718;4.630;2023-10-08T12:44:19;9.45;;;4.75;;
23872;SDS011;42884;50.718;4.630;2023-10-08T12:46:45;12.52;;;5.53;;
23872;SDS011;42884;50.718;4.630;2023-10-08T12:49:13;8.98;;;5.07;;
23872;SDS011;42884;50.718;4.630;2023-10-08T12:51:39;10.80;;;5.40;;
23872;SDS011;42884;50.718;4.630;2023-10-08T12:54:06;7.30;;;5.13;;
23872;SDS011;42884;50.718;4.630;2023-10-08T12:56:34;13.68;;;5.80;;
23872;SDS011;42884;50.718;4.630;2023-10-08T12:59:01;11.82;;;4.70;;
23872;SDS011;42884;50.718;4.630;2023-10-08T13:01:45;10.80;;;5.00;;
23872;SDS011;42884;50.718;4.630;2023-10-08T13:04:21;8.35;;;4.97;;
23872;SDS011;42884;50.718;4.630;2023-10-08T13:06:54;10.73;;;5.55;;
23872;SDS011;42884;50.718;4.630;2023-10-08T13:09:26;11.88;;;5.30;;
23872;SDS011;42884;50.718;4.630;2023-10-08T13:11:52;10.23;;;5.18;;
23872;SDS011;42884;50.718;4.630;2023-10-08T13:14:18;9.65;;;5.38;;
23872;SDS011;42884;50.718;4.630;2023-10-08T13:16:44;8.38;;;4.97;;
23872;SDS011;42884;50.718;4.630;2023-10-08T13:19:10;12.50;;;5.13;;
23872;SDS011;42884;50.718;4.630;2023-10-08T13:21:36;12.05;;;4.80;;
23872;SDS011;42884;50.718;4.630;2023-10-08T13:24:03;9.70;;;5.97;;
23872;SDS011;42884;50.718;4.630;2023-10-08T13:26:30;11.55;;;5.45;;
23872;SDS011;42884;50.718;4.630;2023-10-08T13:28:59;10.02;;;5.70;;
23872;SDS011;42884;50.718;4.630;2023-10-08T13:31:26;9.43;;;5.20;;
23872;SDS011;42884;50.718;4.630;2023-10-08T13:33:52;9.93;;;5.43;;
23872;SDS011;42884;50.718;4.630;2023-10-08T13:36:21;10.35;;;5.78;;
23872;SDS011;42884;50.718;4.630;2023-10-08T13:38:48;8.30;;;5.25;;
23872;SDS011;42884;50.718;4.630;2023-10-08T13:41:15;6.90;;;4.63;;
23872;SDS011;42884;50.718;4.630;2023-10-08T13:43:43;12.13;;;5.13;;
23872;SDS011;42884;50.718;4.630;2023-10-08T13:46:19;10.90;;;5.22;;
23872;SDS011;42884;50.718;4.630;2023-10-08T13:48:48;12.77;;;5.50;;
23872;SDS011;42884;50.718;4.630;2023-10-08T13:51:15;11.55;;;5.13;;
23872;SDS011;42884;50.718;4.630;2023-10-08T13:53:54;11.38;;;5.32;;
23872;SDS011;42884;50.718;4.630;2023-10-08T13:56:41;9.02;;;5.68;;
23872;SDS011;42884;50.718;4.630;2023-10-08T13:59:13;9.80;;;5.82;;
23872;SDS011;42884;50.718;4.630;2023-10-08T14:01:40;9.80;;;5.70;;
23872;SDS011;42884;50.718;4.630;2023-10-08T14:04:10;8.18;;;5.00;;
23872;SDS011;42884;50.718;4.630;2023-10-08T14:06:40;11.88;;;5.32;;
23872;SDS011;42884;50.718;4.630;2023-10-08T14:09:12;13.70;;;5.25;;
23872;SDS011;42884;50.718;4.630;2023-10-08T14:11:46;10.50;;;5.43;;
23872;SDS011;42884;50.718;4.630;2023-10-08T14:14:12;9.18;;;5.32;;
23872;SDS011;42884;50.718;4.630;2023-10-08T14:16:39;10.68;;;5.03;;
23872;SDS011;42884;50.718;4.630;2023-10-08T14:19:11;10.63;;;5.65;;
23872;SDS011;42884;50.718;4.630;2023-10-08T14:21:39;10.10;;;5.28;;
23872;SDS011;42884;50.718;4.630;2023-10-08T14:24:40;9.68;;;5.78;;
23872;SDS011;42884;50.718;4.630;2023-10-08T14:27:05;9.77;;;6.13;;
23872;SDS011;42884;50.718;4.630;2023-10-08T14:29:40;11.90;;;5.57;;
23872;SDS011;42884;50.718;4.630;2023-10-08T14:32:09;10.98;;;5.35;;
23872;SDS011;42884;50.718;4.630;2023-10-08T14:34:35;10.13;;;5.13;;
23872;SDS011;42884;50.718;4.630;2023-10-08T14:37:20;9.20;;;5.25;;
23872;SDS011;42884;50.718;4.630;2023-10-08T14:40:06;11.98;;;5.13;;
23872;SDS011;42884;50.718;4.630;2023-10-08T14:42:50;11.50;;;5.15;;
23872;SDS011;42884;50.718;4.630;2023-10-08T14:45:24;10.55;;;5.72;;
23872;SDS011;42884;50.718;4.630;2023-10-08T14:47:53;9.93;;;5.00;;
23872;SDS011;42884;50.718;4.630;2023-10-08T14:50:22;9.13;;;4.80;;
23872;SDS011;42884;50.718;4.630;2023-10-08T14:52:52;10.20;;;5.65;;
23872;SDS011;42884;50.718;4.630;2023-10-08T14:55:19;10.35;;;5.13;;
23872;SDS011;42884;50.718;4.630;2023-10-08T14:57:48;9.50;;;4.93;;
23872;SDS011;42884;50.718;4.630;2023-10-08T15:00:20;9.73;;;5.20;;
23872;SDS011;42884;50.718;4.630;2023-10-08T15:02:55;10.45;;;5.32;;
23872;SDS011;42884;50.718;4.630;2023-10-08T15:05:23;8.25;;;4.82;;
23872;SDS011;42884;50.718;4.630;2023-10-08T15:07:51;6.13;;;4.38;;
23872;SDS011;42884;50.718;4.630;2023-10-08T15:10:18;10.18;;;4.70;;
23872;SDS011;42884;50.718;4.630;2023-10-08T15:12:44;8.27;;;5.03;;
23872;SDS011;42884;50.718;4.630;2023-10-08T15:17:42;9.80;;;4.78;;
23872;SDS011;42884;50.718;4.630;2023-10-08T15:20:09;7.07;;;4.72;;
23872;SDS011;42884;50.718;4.630;2023-10-08T15:22:41;6.68;;;4.15;;
23872;SDS011;42884;50.718;4.630;2023-10-08T15:25:13;9.85;;;5.53;;
23872;SDS011;42884;50.718;4.630;2023-10-08T15:27:42;9.45;;;5.07;;
23872;SDS011;42884;50.718;4.630;2023-10-08T15:30:10;10.48;;;4.78;;
23872;SDS011;42884;50.718;4.630;2023-10-08T15:32:38;12.02;;;4.78;;
23872;SDS011;42884;50.718;4.630;2023-10-08T15:35:05;8.90;;;4.82;;
23872;SDS011;42884;50.718;4.630;2023-10-08T15:37:35;9.43;;;4.40;;
23872;SDS011;42884;50.718;4.630;2023-10-08T15:40:02;10.15;;;4.38;;
23872;SDS011;42884;50.718;4.630;2023-10-08T15:42:31;7.03;;;4.32;;
23872;SDS011;42884;50.718;4.630;2023-10-08T15:45:01;13.13;;;4.65;;
23872;SDS011;42884;50.718;4.630;2023-10-08T15:47:28;9.05;;;4.85;;
23872;SDS011;42884;50.718;4.630;2023-10-08T15:49:55;9.65;;;5.45;;
23872;SDS011;42884;50.718;4.630;2023-10-08T15:52:24;10.20;;;4.65;;
23872;SDS011;42884;50.718;4.630;2023-10-08T15:54:50;8.48;;;4.47;;
23872;SDS011;42884;50.718;4.630;2023-10-08T15:59:41;9.70;;;4.45;;
23872;SDS011;42884;50.718;4.630;2023-10-08T16:04:33;8.02;;;4.93;;